createdAt,value
2019-06-10T00:02:11.126Z,6.03
2019-06-10T00:04:41.605Z,6.73
2019-06-10T00:07:11.887Z,5.67
2019-06-10T00:09:41.888Z,5.93
2019-06-10T00:12:12.761Z,6.53
2019-06-10T00:14:42.852Z,6.30
2019-06-10T00:17:12.817Z,5.90
2019-06-10T00:19:42.626Z,6.10
2019-06-10T00:22:13.636Z,6.50
2019-06-10T00:24:43.356Z,6.77
2019-06-10T00:27:12.970Z,6.00
2019-06-10T00:29:42.732Z,6.00
2019-06-10T00:32:13.306Z,5.97
2019-06-10T00:34:43.274Z,6.40
2019-06-10T00:37:14.630Z,6.70
2019-06-10T00:39:44.625Z,5.73
2019-06-10T00:42:15.337Z,6.20
2019-06-10T00:44:45.396Z,7.10
2019-06-10T00:47:15.578Z,6.57
2019-06-10T00:49:45.489Z,6.53
2019-06-10T00:52:15.217Z,6.57
2019-06-10T00:54:45.040Z,6.60
2019-06-10T00:57:14.976Z,6.30
2019-06-10T00:59:44.969Z,6.60
2019-06-10T01:02:14.693Z,6.70
2019-06-10T01:04:44.510Z,7.37
2019-06-10T01:07:14.962Z,7.43
2019-06-10T01:09:44.739Z,7.60
2019-06-10T01:12:15.128Z,7.47
2019-06-10T01:14:45.500Z,8.63
2019-06-10T01:17:15.685Z,8.67
2019-06-10T01:19:45.568Z,9.67
2019-06-10T01:22:17.209Z,9.30
2019-06-10T01:24:47.227Z,9.40
2019-06-10T01:27:18.054Z,9.10
2019-06-10T01:29:48.217Z,9.53
2019-06-10T01:32:17.992Z,9.13
2019-06-10T01:34:47.799Z,8.93
2019-06-10T01:37:17.777Z,7.83
2019-06-10T01:39:47.639Z,8.03
2019-06-10T01:42:17.464Z,9.20
2019-06-10T01:44:47.209Z,8.47
2019-06-10T01:47:17.692Z,8.10
2019-06-10T01:49:47.506Z,8.57
2019-06-10T01:52:18.401Z,9.00
2019-06-10T01:54:48.278Z,8.40
2019-06-10T01:57:18.759Z,10.57
2019-06-10T01:59:50.942Z,15.60
2019-06-10T02:02:24.005Z,12.50
2019-06-10T02:04:54.254Z,10.00
2019-06-10T02:07:24.323Z,8.37
2019-06-10T02:09:54.233Z,9.67
2019-06-10T02:12:24.475Z,8.53
2019-06-10T02:14:54.374Z,8.53
2019-06-10T02:17:24.298Z,8.73
2019-06-10T02:19:54.295Z,9.10
2019-06-10T02:22:24.551Z,8.70
2019-06-10T02:24:54.767Z,8.60
2019-06-10T02:27:24.552Z,9.90
2019-06-10T02:29:54.681Z,10.17
2019-06-10T02:32:31.579Z,9.63
2019-06-10T02:35:08.264Z,9.70
2019-06-10T02:37:32.147Z,9.27
2019-06-10T02:39:59.369Z,9.83
2019-06-10T02:42:36.939Z,9.37
2019-06-10T02:45:08.179Z,9.67
2019-06-10T02:47:38.525Z,9.10
2019-06-10T02:50:11.036Z,9.67
2019-06-10T02:52:44.458Z,10.07
2019-06-10T02:55:15.450Z,9.80
2019-06-10T02:57:45.368Z,9.27
2019-06-10T03:00:24.712Z,10.13
2019-06-10T03:02:47.153Z,9.43
2019-06-10T03:05:20.147Z,9.43
2019-06-10T03:07:53.107Z,9.13
2019-06-10T03:10:29.555Z,9.93
2019-06-10T03:12:52.913Z,9.30
2019-06-10T03:15:26.419Z,9.67
2019-06-10T03:17:55.563Z,9.93
2019-06-10T03:20:25.959Z,9.80
2019-06-10T03:22:55.858Z,8.60
2019-06-10T03:25:26.432Z,10.23
2019-06-10T03:27:57.175Z,8.77
2019-06-10T03:30:41.107Z,9.07
2019-06-10T03:32:58.456Z,10.10
2019-06-10T03:35:28.500Z,10.37
2019-06-10T03:37:58.323Z,9.13
2019-06-10T03:40:27.999Z,9.80
2019-06-10T03:42:57.983Z,8.63
2019-06-10T03:45:28.545Z,9.53
2019-06-10T03:47:58.380Z,9.13
2019-06-10T03:50:28.715Z,9.40
2019-06-10T03:53:01.144Z,9.20
2019-06-10T03:55:32.892Z,8.80
2019-06-10T03:58:02.314Z,9.30
2019-06-10T04:00:32.754Z,9.13
2019-06-10T04:03:02.906Z,9.10
2019-06-10T04:05:34.152Z,9.13
2019-06-10T04:08:03.848Z,9.00
2019-06-10T04:10:33.756Z,9.83
2019-06-10T04:13:04.030Z,9.77
2019-06-10T04:15:33.931Z,9.87
2019-06-10T04:18:04.117Z,10.10
2019-06-10T04:20:34.006Z,8.50
2019-06-10T04:23:03.867Z,9.07
2019-06-10T04:25:33.814Z,10.37
2019-06-10T04:28:03.736Z,9.57
2019-06-10T04:30:33.528Z,10.63
2019-06-10T04:33:03.380Z,10.80
2019-06-10T04:35:33.708Z,10.33
2019-06-10T04:38:03.507Z,10.20
2019-06-10T04:40:33.396Z,11.20
2019-06-10T04:43:03.310Z,9.93
2019-06-10T04:45:33.169Z,9.70
2019-06-10T04:48:03.214Z,9.70
2019-06-10T04:50:41.654Z,9.07
2019-06-10T04:53:05.740Z,9.93
2019-06-10T04:55:35.584Z,9.07
2019-06-10T04:58:07.016Z,10.20
2019-06-10T05:00:36.804Z,9.43
2019-06-10T05:03:06.704Z,9.73
2019-06-10T05:05:36.431Z,10.07
2019-06-10T05:08:06.283Z,10.33
2019-06-10T05:10:36.097Z,9.63
2019-06-10T05:13:05.876Z,9.50
2019-06-10T05:15:35.720Z,9.30
2019-06-10T05:18:05.563Z,8.70
2019-06-10T05:20:51.018Z,7.20
2019-06-10T05:23:06.896Z,7.37
2019-06-10T05:25:36.642Z,8.40
2019-06-10T05:28:06.399Z,7.50
2019-06-10T05:30:37.496Z,8.13
2019-06-10T05:33:07.152Z,7.37
2019-06-10T05:35:36.871Z,7.10
2019-06-10T05:38:06.750Z,6.93
2019-06-10T05:40:36.577Z,6.37
2019-06-10T05:43:06.335Z,6.63
2019-06-10T05:45:36.126Z,7.00
2019-06-10T05:48:07.313Z,6.80
2019-06-10T05:50:37.183Z,7.17
2019-06-10T05:53:06.898Z,6.87
2019-06-10T05:55:36.767Z,5.47
2019-06-10T05:58:06.634Z,5.47
2019-06-10T06:00:36.346Z,5.80
2019-06-10T06:03:06.299Z,6.67
2019-06-10T06:05:37.580Z,5.73
2019-06-10T06:08:08.814Z,6.07
2019-06-10T06:10:38.794Z,6.33
2019-06-10T06:13:08.661Z,5.43
2019-06-10T06:15:38.528Z,6.30
2019-06-10T06:18:10.831Z,5.20
2019-06-10T06:20:39.885Z,5.70
2019-06-10T06:23:12.123Z,5.57
2019-06-10T06:25:44.317Z,5.87
2019-06-10T06:28:16.026Z,6.00
2019-06-10T06:30:46.524Z,6.47
2019-06-10T06:33:16.242Z,6.30
2019-06-10T06:35:46.679Z,6.50
2019-06-10T06:38:16.747Z,6.17
2019-06-10T06:40:46.723Z,5.90
2019-06-10T06:43:16.685Z,6.70
2019-06-10T06:45:46.937Z,6.87
2019-06-10T06:48:16.748Z,7.03
2019-06-10T06:51:03.728Z,7.30
2019-06-10T06:53:28.587Z,7.57
2019-06-10T06:55:53.411Z,7.77
2019-06-10T06:58:23.185Z,8.33
2019-06-10T07:01:05.179Z,8.30
2019-06-10T07:03:24.717Z,9.57
2019-06-10T07:05:55.540Z,8.50
2019-06-10T07:08:26.972Z,8.17
2019-06-10T07:11:02.836Z,8.50
2019-06-10T07:13:37.116Z,8.47
2019-06-10T07:16:05.743Z,8.30
2019-06-10T07:18:40.953Z,8.43
2019-06-10T07:21:07.141Z,9.10
2019-06-10T07:23:40.485Z,8.20
2019-06-10T07:26:08.990Z,8.30
2019-06-10T07:28:40.777Z,7.90
2019-06-10T07:31:20.928Z,8.23
2019-06-10T07:33:46.807Z,8.80
2019-06-10T07:36:14.903Z,9.40
2019-06-10T07:38:48.586Z,9.63
2019-06-10T07:41:16.341Z,8.07
2019-06-10T07:43:49.488Z,8.00
2019-06-10T07:46:17.626Z,9.23
2019-06-10T07:48:48.670Z,8.50
2019-06-10T07:51:19.118Z,8.30
2019-06-10T07:53:48.798Z,8.20
2019-06-10T07:56:18.830Z,7.90
2019-06-10T07:58:48.767Z,9.37
2019-06-10T08:01:18.650Z,9.10
2019-06-10T08:03:48.259Z,9.30
2019-06-10T08:06:19.477Z,8.17
2019-06-10T08:08:49.209Z,9.20
2019-06-10T08:11:19.037Z,8.93
2019-06-10T08:13:48.894Z,8.30
2019-06-10T08:16:18.657Z,8.63
2019-06-10T08:19:16.029Z,8.40
2019-06-10T08:21:20.035Z,8.90
2019-06-10T08:23:49.996Z,9.20
2019-06-10T08:26:19.862Z,9.10
2019-06-10T08:28:49.576Z,10.50
2019-06-10T08:31:19.461Z,9.40
2019-06-10T08:33:49.311Z,11.73
2019-06-10T08:36:19.039Z,9.67
2019-06-10T08:38:48.910Z,10.27
2019-06-10T08:41:18.754Z,12.87
2019-06-10T08:43:48.559Z,9.53
2019-06-10T08:46:18.548Z,9.80
2019-06-10T08:48:49.619Z,10.80
2019-06-10T08:51:19.567Z,9.33
2019-06-10T08:53:50.088Z,9.30
2019-06-10T08:56:22.415Z,9.20
2019-06-10T08:58:54.065Z,10.93
2019-06-10T09:01:24.667Z,10.00
2019-06-10T09:03:54.460Z,10.53
2019-06-10T09:06:24.383Z,12.03
2019-06-10T09:08:54.745Z,10.08
2019-06-10T09:11:24.523Z,9.20
2019-06-10T09:13:54.331Z,9.83
2019-06-10T09:16:24.139Z,11.00
2019-06-10T09:18:55.275Z,9.97
2019-06-10T09:21:25.384Z,10.10
2019-06-10T09:23:59.710Z,9.77
2019-06-10T09:26:26.928Z,10.70
2019-06-10T09:28:56.879Z,10.23
2019-06-10T09:31:26.718Z,9.60
2019-06-10T09:33:57.211Z,9.40
2019-06-10T09:36:27.178Z,9.58
2019-06-10T09:38:57.111Z,10.18
2019-06-10T09:41:37.354Z,9.93
2019-06-10T09:43:58.469Z,10.60
2019-06-10T09:46:33.070Z,9.23
2019-06-10T09:49:04.150Z,8.98
2019-06-10T09:51:34.297Z,9.58
2019-06-10T09:54:06.568Z,10.20
2019-06-10T09:56:35.825Z,9.88
2019-06-10T09:59:05.640Z,10.53
2019-06-10T10:01:35.610Z,10.32
2019-06-10T10:04:05.507Z,9.90
2019-06-10T10:06:36.496Z,9.40
2019-06-10T10:09:07.438Z,9.33
2019-06-10T10:11:37.317Z,11.95
2019-06-10T10:14:10.338Z,9.90
2019-06-10T10:16:38.963Z,9.78
2019-06-10T10:19:09.069Z,9.35
2019-06-10T10:21:41.504Z,8.80
2019-06-10T10:24:14.595Z,9.35
2019-06-10T10:26:46.742Z,9.28
2019-06-10T10:29:15.429Z,7.67
2019-06-10T10:31:48.979Z,8.38
2019-06-10T10:34:16.455Z,9.18
2019-06-10T10:36:48.720Z,8.35
2019-06-10T10:39:21.278Z,9.55
2019-06-10T10:41:54.428Z,9.03
2019-06-10T10:44:22.213Z,9.03
2019-06-10T10:46:54.392Z,9.25
2019-06-10T10:49:23.793Z,8.95
2019-06-10T10:51:53.681Z,8.28
2019-06-10T10:54:32.850Z,8.88
2019-06-10T10:56:58.987Z,8.10
2019-06-10T10:59:27.006Z,8.63
2019-06-10T11:01:56.896Z,7.62
2019-06-10T11:04:27.782Z,8.40
2019-06-10T11:07:00.417Z,7.58
2019-06-10T11:09:29.403Z,7.37
2019-06-10T11:12:02.909Z,8.48
2019-06-10T11:14:34.081Z,8.08
2019-06-10T11:17:03.891Z,8.08
2019-06-10T11:19:33.873Z,7.65
2019-06-10T11:22:03.740Z,7.47
2019-06-10T11:24:40.904Z,6.60
2019-06-10T11:27:05.556Z,6.65
2019-06-10T11:29:35.537Z,6.95
2019-06-10T11:32:05.346Z,6.37
2019-06-10T11:34:36.413Z,6.35
2019-06-10T11:37:06.086Z,6.33
2019-06-10T11:39:38.699Z,5.87
2019-06-10T11:42:08.591Z,4.90
2019-06-10T11:44:38.618Z,5.50
2019-06-10T11:47:08.360Z,5.50
2019-06-10T11:49:38.140Z,6.40
2019-06-10T11:52:07.938Z,6.40
2019-06-10T11:54:51.697Z,5.75
2019-06-10T11:57:12.361Z,5.70
2019-06-10T11:59:43.431Z,5.10
2019-06-10T12:02:13.470Z,5.60
2019-06-10T12:04:43.176Z,5.62
2019-06-10T12:07:13.040Z,4.70
2019-06-10T12:09:42.906Z,4.58
2019-06-10T12:12:13.601Z,5.12
2019-06-10T12:14:43.482Z,5.65
2019-06-10T12:17:24.663Z,4.83
2019-06-10T12:19:44.743Z,5.08
2019-06-10T12:22:14.682Z,4.90
2019-06-10T12:24:44.554Z,5.15
2019-06-10T12:27:14.353Z,5.47
2019-06-10T12:29:45.420Z,5.78
2019-06-10T12:32:15.512Z,5.37
2019-06-10T12:34:46.431Z,5.08
2019-06-10T12:37:16.514Z,5.83
2019-06-10T12:39:46.337Z,5.83
2019-06-10T12:42:17.444Z,5.85
2019-06-10T12:44:47.252Z,4.85
2019-06-10T12:47:17.112Z,5.20
2019-06-10T12:49:47.282Z,4.95
2019-06-10T12:52:16.915Z,5.80
2019-06-10T12:54:46.855Z,6.30
2019-06-10T12:57:16.630Z,4.70
2019-06-10T12:59:46.344Z,5.33
2019-06-10T13:02:23.355Z,4.70
2019-06-10T13:04:49.348Z,4.58
2019-06-10T13:07:19.382Z,5.25
2019-06-10T13:09:49.233Z,7.33
2019-06-10T13:12:19.002Z,4.60
2019-06-10T13:14:48.962Z,8.00
2019-06-10T13:17:18.733Z,5.97
2019-06-10T13:19:48.554Z,6.10
2019-06-10T13:22:19.737Z,5.62
2019-06-10T13:24:49.614Z,12.00
2019-06-10T13:27:19.547Z,8.53
2019-06-10T13:29:49.522Z,6.50
2019-06-10T13:32:19.382Z,5.70
2019-06-10T13:34:49.297Z,5.87
2019-06-10T13:37:19.144Z,5.67
2019-06-10T13:39:49.012Z,5.22
2019-06-10T13:42:18.965Z,4.95
2019-06-10T13:44:48.744Z,4.97
2019-06-10T13:47:24.886Z,4.62
2019-06-10T13:49:53.258Z,4.65
2019-06-10T13:52:23.454Z,4.87
2019-06-10T13:54:53.178Z,4.53
2019-06-10T13:57:23.117Z,4.72
2019-06-10T13:59:52.975Z,4.47
2019-06-10T14:02:24.848Z,4.35
2019-06-10T14:04:54.264Z,5.05
2019-06-10T14:07:24.052Z,4.20
2019-06-10T14:09:53.856Z,4.47
2019-06-10T14:12:23.827Z,4.37
2019-06-10T14:14:53.920Z,4.80
2019-06-10T14:17:24.750Z,5.15
2019-06-10T14:19:54.588Z,4.70
2019-06-10T14:22:24.456Z,5.00
2019-06-10T14:24:54.195Z,4.55
2019-06-10T14:27:24.618Z,4.83
2019-06-10T14:29:55.358Z,5.72
2019-06-10T14:32:25.145Z,4.53
2019-06-10T14:34:54.907Z,4.30
2019-06-10T14:37:35.733Z,4.85
2019-06-10T14:39:56.342Z,4.95
2019-06-10T14:42:26.192Z,4.50
2019-06-10T14:44:56.081Z,4.42
2019-06-10T14:47:25.929Z,4.40
2019-06-10T14:49:55.710Z,3.70
2019-06-10T14:52:25.524Z,4.55
2019-06-10T14:54:57.627Z,3.95
2019-06-10T14:57:27.115Z,4.55
2019-06-10T14:59:57.020Z,4.03
2019-06-10T15:02:26.771Z,4.35
2019-06-10T15:04:56.738Z,4.30
2019-06-10T15:07:26.670Z,4.65
2019-06-10T15:09:56.640Z,4.25
2019-06-10T15:12:26.388Z,4.47
2019-06-10T15:14:56.308Z,4.83
2019-06-10T15:17:27.437Z,4.50
2019-06-10T15:19:57.380Z,4.30
2019-06-10T15:22:28.732Z,4.70
2019-06-10T15:24:58.530Z,4.58
2019-06-10T15:27:33.211Z,4.37
2019-06-10T15:30:00.312Z,4.97
2019-06-10T15:32:34.540Z,4.53
2019-06-10T15:35:03.317Z,5.03
2019-06-10T15:37:34.568Z,6.35
2019-06-10T15:40:05.212Z,4.78
2019-06-10T15:42:36.397Z,5.40
2019-06-10T15:45:06.573Z,5.97
2019-06-10T15:47:36.480Z,6.55
2019-06-10T15:50:07.962Z,7.25
2019-06-10T15:52:37.979Z,6.17
2019-06-10T15:55:08.277Z,5.25
2019-06-10T15:57:43.214Z,5.03
2019-06-10T16:00:17.657Z,6.12
2019-06-10T16:02:44.121Z,6.83
2019-06-10T16:05:15.810Z,4.87
2019-06-10T16:07:45.362Z,5.00
2019-06-10T16:10:18.963Z,5.60
2019-06-10T16:12:46.828Z,5.17
2019-06-10T16:15:18.154Z,4.92
2019-06-10T16:17:48.454Z,4.80
2019-06-10T16:20:19.430Z,4.80
2019-06-10T16:22:49.291Z,5.42
2019-06-10T16:25:20.008Z,5.20
2019-06-10T16:27:51.756Z,4.95
2019-06-10T16:30:23.241Z,5.90
2019-06-10T16:32:53.211Z,5.78
2019-06-10T16:35:23.945Z,6.28
2019-06-10T16:37:56.713Z,4.90
2019-06-10T16:40:27.243Z,5.60
2019-06-10T16:42:57.406Z,6.27
2019-06-10T16:45:30.662Z,6.70
2019-06-10T16:47:58.819Z,6.17
2019-06-10T16:50:29.853Z,7.10
2019-06-10T16:53:03.034Z,7.33
2019-06-10T16:55:33.244Z,6.97
2019-06-10T16:58:03.289Z,7.87
2019-06-10T17:00:34.894Z,7.37
2019-06-10T17:03:05.460Z,7.43
2019-06-10T17:05:35.360Z,8.60
2019-06-10T17:08:05.114Z,8.73
2019-06-10T17:10:34.894Z,8.80
2019-06-10T17:13:06.861Z,9.67
2019-06-10T17:15:36.698Z,8.80
2019-06-10T17:18:06.898Z,9.60
2019-06-10T17:20:36.745Z,9.03
2019-06-10T17:23:26.545Z,9.43
2019-06-10T17:25:55.549Z,9.40
2019-06-10T17:28:29.804Z,9.93
2019-06-10T17:30:58.814Z,9.97
2019-06-10T17:33:30.380Z,9.73
2019-06-10T17:36:00.269Z,9.43
2019-06-10T17:38:31.278Z,9.53
2019-06-10T17:41:02.906Z,10.07
2019-06-10T17:43:34.308Z,9.80
2019-06-10T17:46:04.484Z,10.07
2019-06-10T17:48:34.164Z,10.13
2019-06-10T17:51:04.116Z,10.60
2019-06-10T17:53:35.052Z,10.80
2019-06-10T17:56:05.028Z,10.70
2019-06-10T17:58:50.013Z,10.63
2019-06-10T18:01:06.545Z,10.27
2019-06-10T18:03:39.775Z,10.83
2019-06-10T18:06:08.115Z,11.47
2019-06-10T18:08:40.693Z,11.27
2019-06-10T18:11:09.259Z,11.83
2019-06-10T18:13:39.072Z,11.03
2019-06-10T18:16:09.024Z,11.10
2019-06-10T18:18:38.847Z,11.20
2019-06-10T18:21:08.603Z,11.57
2019-06-10T18:23:38.433Z,10.47
2019-06-10T18:26:08.171Z,11.60
2019-06-10T18:28:59.837Z,11.13
2019-06-10T18:31:09.691Z,11.90
2019-06-10T18:33:39.551Z,10.63
2019-06-10T18:36:09.342Z,11.33
2019-06-10T18:38:39.760Z,10.90
2019-06-10T18:41:09.674Z,13.00
2019-06-10T18:43:40.021Z,12.77
2019-06-10T18:46:12.524Z,12.40
2019-06-10T18:48:43.082Z,14.03
2019-06-10T18:51:12.987Z,15.90
2019-06-10T18:53:43.057Z,16.73
2019-06-10T18:56:13.088Z,19.17
2019-06-10T18:58:44.229Z,18.57
2019-06-10T19:01:14.152Z,19.57
2019-06-10T19:03:45.112Z,17.53
2019-06-10T19:06:14.904Z,18.53
2019-06-10T19:08:44.708Z,18.10
2019-06-10T19:11:14.535Z,19.33
2019-06-10T19:13:44.265Z,18.73
2019-06-10T19:16:15.303Z,18.67
2019-06-10T19:18:45.132Z,19.13
2019-06-10T19:21:15.363Z,20.17
2019-06-10T19:23:45.139Z,19.47
2019-06-10T19:26:14.986Z,19.90
2019-06-10T19:28:45.417Z,19.50
2019-06-10T19:31:15.200Z,20.30
2019-06-10T19:33:45.586Z,19.70
2019-06-10T19:36:15.371Z,19.80
2019-06-10T19:38:45.066Z,20.33
2019-06-10T19:41:14.918Z,19.10
2019-06-10T19:43:45.481Z,20.80
2019-06-10T19:46:15.318Z,20.33
2019-06-10T19:48:56.592Z,22.93
2019-06-10T19:51:18.044Z,25.00
2019-06-10T19:53:47.814Z,24.67
2019-06-10T19:56:17.856Z,25.43
2019-06-10T19:58:47.817Z,26.53
2019-06-10T20:01:17.682Z,24.90
2019-06-10T20:03:47.498Z,25.63
2019-06-10T20:06:17.261Z,27.37
2019-06-10T20:08:46.997Z,26.87
2019-06-10T20:11:16.836Z,26.73
2019-06-10T20:13:46.931Z,26.33
2019-06-10T20:16:16.788Z,24.47
2019-06-10T20:18:48.229Z,25.40
2019-06-10T20:21:18.345Z,23.93
2019-06-10T20:23:48.299Z,24.17
2019-06-10T20:26:18.086Z,24.90
2019-06-10T20:28:52.181Z,24.83
2019-06-10T20:31:19.277Z,26.57
2019-06-10T20:33:48.961Z,25.40
2019-06-10T20:36:23.326Z,27.47
2019-06-10T20:38:53.521Z,27.20
2019-06-10T20:41:23.144Z,27.00
2019-06-10T20:43:55.542Z,26.63
2019-06-10T20:46:24.521Z,25.87
2019-06-10T20:48:54.712Z,27.17
2019-06-10T20:51:27.094Z,24.10
2019-06-10T20:53:56.041Z,20.53
2019-06-10T20:56:25.889Z,19.50
2019-06-10T20:58:55.814Z,17.13
2019-06-10T21:01:25.857Z,12.37
2019-06-10T21:03:55.518Z,11.97
2019-06-10T21:06:26.547Z,8.80
2019-06-10T21:08:57.865Z,9.93
2019-06-10T21:11:27.535Z,9.67
2019-06-10T21:13:57.332Z,7.83
2019-06-10T21:16:27.103Z,6.67
2019-06-10T21:18:57.078Z,7.83
2019-06-10T21:21:27.007Z,7.73
2019-06-10T21:23:56.959Z,6.37
2019-06-10T21:26:26.715Z,6.97
2019-06-10T21:28:56.422Z,7.07
2019-06-10T21:31:29.426Z,6.43
2019-06-10T21:33:58.018Z,5.97
2019-06-10T21:36:27.806Z,5.50
2019-06-10T21:38:58.912Z,6.40
2019-06-10T21:41:28.830Z,6.13
2019-06-10T21:43:59.647Z,6.30
2019-06-10T21:46:29.635Z,6.17
2019-06-10T21:48:59.487Z,5.80
2019-06-10T21:51:31.677Z,5.70
2019-06-10T21:54:02.995Z,4.60
2019-06-10T21:56:32.938Z,4.87
2019-06-10T21:59:02.686Z,5.20
2019-06-10T22:01:32.873Z,6.20
2019-06-10T22:04:04.552Z,5.80
2019-06-10T22:06:34.537Z,5.37
2019-06-10T22:09:05.727Z,6.70
2019-06-10T22:11:35.590Z,6.03
2019-06-10T22:14:05.593Z,6.47
2019-06-10T22:16:35.481Z,6.23
2019-06-10T22:19:05.546Z,6.30
2019-06-10T22:21:35.568Z,5.67
2019-06-10T22:24:05.627Z,6.03
2019-06-10T22:26:35.496Z,5.63
2019-06-10T22:29:05.420Z,5.73
2019-06-10T22:31:36.682Z,5.93
2019-06-10T22:34:06.582Z,6.10
2019-06-10T22:36:36.606Z,6.37
2019-06-10T22:39:06.893Z,6.13
2019-06-10T22:41:37.052Z,5.70
2019-06-10T22:44:06.812Z,5.67
2019-06-10T22:46:37.136Z,6.33
2019-06-10T22:49:06.897Z,6.27
2019-06-10T22:51:36.816Z,6.07
2019-06-10T22:54:06.829Z,5.93
2019-06-10T22:56:36.692Z,5.40
2019-06-10T22:59:06.657Z,5.80
2019-06-10T23:01:38.327Z,6.00
2019-06-10T23:04:08.553Z,5.70
2019-06-10T23:06:38.586Z,5.60
2019-06-10T23:09:08.777Z,4.73
2019-06-10T23:11:38.925Z,5.70
2019-06-10T23:14:08.834Z,5.10
2019-06-10T23:16:38.798Z,5.17
2019-06-10T23:19:08.683Z,9.47
2019-06-10T23:21:38.765Z,14.50
2019-06-10T23:24:08.693Z,18.30
2019-06-10T23:26:38.713Z,13.97
2019-06-10T23:29:08.676Z,15.13
2019-06-10T23:31:49.542Z,16.97
2019-06-10T23:34:11.682Z,14.00
2019-06-10T23:36:43.223Z,13.63
2019-06-10T23:39:13.309Z,17.47
2019-06-10T23:41:43.491Z,20.23
2019-06-10T23:44:13.154Z,18.43
2019-06-10T23:46:43.954Z,12.03
2019-06-10T23:49:13.887Z,8.47
2019-06-10T23:51:43.894Z,5.70
2019-06-10T23:54:13.785Z,6.10
2019-06-10T23:56:43.533Z,6.03
2019-06-10T23:59:13.246Z,5.13
